This is the latest recevied weather packets stored in our database for station/object AI5BL. If no packets are shown the sender has not sent any weather packets the latest 1 day(s).
| Time | Temp. | Humidity | Pressure | Rain* | Wind** | Luminosity | Snow |
|---|---|---|---|---|---|---|---|
| 1778033496 | 22.22° C | 81% | 1014.7 hPa | 0 mm | 0.45 m/s, 130° | 0 W/m² | - |
| 1778033193 | 22.22° C | 83% | 1014.6 hPa | 0 mm | 0 m/s | 0 W/m² | - |
| 1778032891 | 22.78° C | 81% | 1014.7 hPa | 0 mm | 0 m/s | 0 W/m² | - |
| 1778032589 | 22.78° C | 81% | 1014.7 hPa | 0 mm | 0.45 m/s, 103° | 0 W/m² | - |
| 1778032285 | 22.78° C | 80% | 1014.7 hPa | 0 mm | 0.45 m/s, 181° | 0 W/m² | - |
| 1778031983 | 22.78° C | 80% | 1014.5 hPa | 0 mm | 0.89 m/s, 92° | 0 W/m² | - |
| 1778031678 | 22.78° C | 80% | 1014.6 hPa | 0 mm | 0.45 m/s, 155° | 0 W/m² | - |
| 1778031377 | 22.78° C | 79% | 1014.3 hPa | 0 mm | 0 m/s | 0 W/m² | - |
| 1778031073 | 22.78° C | 78% | 1014.3 hPa | 0 mm | 0.89 m/s, 115° | 0 W/m² | - |
| 1778030769 | 22.78° C | 78% | 1014.3 hPa | 0 mm | 0.45 m/s, 122° | 0 W/m² | - |
| 1778030466 | 22.78° C | 77% | 1014.4 hPa | 0 mm | 0 m/s | 0 W/m² | - |
| 1778030164 | 22.78° C | 77% | 1014.1 hPa | 0 mm | 0.89 m/s, 138° | 0 W/m² | - |
| 1778029859 | 22.78° C | 79% | 1014.2 hPa | 0 mm | 0 m/s | 0 W/m² | - |
| 1778029554 | 22.78° C | 79% | 1014.1 hPa | 0 mm | 1.34 m/s, 148° | 0 W/m² | - |
| 1778029250 | 22.78° C | 77% | 1013.8 hPa | 0 mm | 0 m/s | 0 W/m² | - |
| 1778028947 | 23.33° C | 77% | 1013.8 hPa | 0 mm | 0.45 m/s, 54° | 0 W/m² | - |
| 1778028643 | 23.33° C | 77% | 1013.7 hPa | 0 mm | 0 m/s | 0 W/m² | - |
| 1778028341 | 23.33° C | 76% | 1013.8 hPa | 0 mm | 0.45 m/s, 24° | 0 W/m² | - |
| 1778028047 | 23.33° C | 78% | 1013.7 hPa | 0 mm | 0 m/s | 1 W/m² | - |
| 1778027733 | 23.33° C | 77% | 1014 hPa | 0 mm | 0.45 m/s, 120° | 1 W/m² | - |
| 1778027429 | 23.33° C | 76% | 1013.7 hPa | 0 mm | 0.89 m/s, 106° | 3 W/m² | - |
| 1778027126 | 23.33° C | 75% | 1013.8 hPa | 0 mm | 1.79 m/s, 71° | 4 W/m² | - |
| 1778026821 | 23.33° C | 75% | 1013.5 hPa | 0 mm | 0.89 m/s, 117° | 7 W/m² | - |
| 1778026518 | 23.89° C | 76% | 1013.6 hPa | 0 mm | 0.45 m/s, 136° | 13 W/m² | - |
| 1778026215 | 23.89° C | 76% | 1013.6 hPa | 0 mm | 0 m/s | 22 W/m² | - |
* Rain latest hour (hover to see other rain measurements)
** Current wind speed in m/s (hover to see current wind gust speed)